sensor_id;sensor_type;location;lat;lon;timestamp;temperature;humidity
20005;DHT22;69160;45.498;-73.582;2023-06-01T00:02:14;23.70;64.50
20005;DHT22;69160;45.498;-73.582;2023-06-01T00:04:41;23.60;65.30
20005;DHT22;69160;45.498;-73.582;2023-06-01T00:07:08;23.70;65.00
20005;DHT22;69160;45.498;-73.582;2023-06-01T00:09:34;23.90;65.10
20005;DHT22;69160;45.498;-73.582;2023-06-01T00:12:00;24.00;65.40
20005;DHT22;69160;45.498;-73.582;2023-06-01T00:14:26;24.00;64.30
20005;DHT22;69160;45.498;-73.582;2023-06-01T00:16:53;23.80;63.30
20005;DHT22;69160;45.498;-73.582;2023-06-01T00:19:22;23.80;63.10
20005;DHT22;69160;45.498;-73.582;2023-06-01T00:21:48;23.70;65.50
20005;DHT22;69160;45.498;-73.582;2023-06-01T00:24:14;23.70;65.20
20005;DHT22;69160;45.498;-73.582;2023-06-01T00:26:40;23.90;65.00
20005;DHT22;69160;45.498;-73.582;2023-06-01T00:29:06;24.00;65.10
20005;DHT22;69160;45.498;-73.582;2023-06-01T00:31:32;24.10;65.40
20005;DHT22;69160;45.498;-73.582;2023-06-01T00:33:59;24.10;64.60
20005;DHT22;69160;45.498;-73.582;2023-06-01T00:36:25;24.00;63.50
20005;DHT22;69160;45.498;-73.582;2023-06-01T00:38:51;23.80;62.50
20005;DHT22;69160;45.498;-73.582;2023-06-01T00:41:17;23.70;64.70
20005;DHT22;69160;45.498;-73.582;2023-06-01T00:43:43;23.70;64.90
20005;DHT22;69160;45.498;-73.582;2023-06-01T00:46:09;23.80;64.90
20005;DHT22;69160;45.498;-73.582;2023-06-01T00:48:37;23.90;64.70
20005;DHT22;69160;45.498;-73.582;2023-06-01T00:51:03;24.00;64.60
20005;DHT22;69160;45.498;-73.582;2023-06-01T00:53:30;24.10;64.50
20005;DHT22;69160;45.498;-73.582;2023-06-01T00:55:56;24.10;63.90
20005;DHT22;69160;45.498;-73.582;2023-06-01T00:58:22;24.00;62.90
20005;DHT22;69160;45.498;-73.582;2023-06-01T01:00:48;23.90;62.40
20005;DHT22;69160;45.498;-73.582;2023-06-01T01:03:15;23.70;64.20
20005;DHT22;69160;45.498;-73.582;2023-06-01T01:05:41;23.70;64.50
20005;DHT22;69160;45.498;-73.582;2023-06-01T01:08:37;23.80;64.60
20005;DHT22;69160;45.498;-73.582;2023-06-01T01:11:18;23.80;64.40
20005;DHT22;69160;45.498;-73.582;2023-06-01T01:13:50;24.00;64.30
20005;DHT22;69160;45.498;-73.582;2023-06-01T01:16:26;24.10;64.20
20005;DHT22;69160;45.498;-73.582;2023-06-01T01:22:20;24.00;62.90
20005;DHT22;69160;45.498;-73.582;2023-06-01T01:30:49;23.70;64.40
20005;DHT22;69160;45.498;-73.582;2023-06-01T01:33:18;23.80;64.60
20005;DHT22;69160;45.498;-73.582;2023-06-01T01:35:44;23.80;64.40
20005;DHT22;69160;45.498;-73.582;2023-06-01T01:38:11;24.00;64.40
20005;DHT22;69160;45.498;-73.582;2023-06-01T01:40:37;24.10;64.90
20005;DHT22;69160;45.498;-73.582;2023-06-01T01:43:03;24.20;64.40
20005;DHT22;69160;45.498;-73.582;2023-06-01T01:45:29;24.20;63.50
20005;DHT22;69160;45.498;-73.582;2023-06-01T01:50:38;23.70;62.50
20005;DHT22;69160;45.498;-73.582;2023-06-01T01:53:08;23.60;64.60
20005;DHT22;69160;45.498;-73.582;2023-06-01T01:55:36;23.60;65.50
20005;DHT22;69160;45.498;-73.582;2023-06-01T01:58:03;23.80;64.70
20005;DHT22;69160;45.498;-73.582;2023-06-01T02:00:30;23.80;64.40
20005;DHT22;69160;45.498;-73.582;2023-06-01T02:02:58;24.00;64.50
20005;DHT22;69160;45.498;-73.582;2023-06-01T02:05:25;24.10;64.40
20005;DHT22;69160;45.498;-73.582;2023-06-01T02:07:51;24.10;64.80
20005;DHT22;69160;45.498;-73.582;2023-06-01T02:10:17;24.20;64.20
20005;DHT22;69160;45.498;-73.582;2023-06-01T02:12:43;24.00;63.50
20005;DHT22;69160;45.498;-73.582;2023-06-01T02:15:09;23.80;62.70
20005;DHT22;69160;45.498;-73.582;2023-06-01T02:17:35;23.70;63.70
20005;DHT22;69160;45.498;-73.582;2023-06-01T02:20:03;23.60;65.00
20005;DHT22;69160;45.498;-73.582;2023-06-01T02:22:29;23.70;65.00
20005;DHT22;69160;45.498;-73.582;2023-06-01T02:24:56;23.80;64.70
20005;DHT22;69160;45.498;-73.582;2023-06-01T02:27:22;24.00;64.80
20005;DHT22;69160;45.498;-73.582;2023-06-01T02:29:49;24.10;64.70
20005;DHT22;69160;45.498;-73.582;2023-06-01T02:32:15;24.20;64.60
20005;DHT22;69160;45.498;-73.582;2023-06-01T02:34:41;24.20;64.30
20005;DHT22;69160;45.498;-73.582;2023-06-01T02:37:07;24.20;63.90
20005;DHT22;69160;45.498;-73.582;2023-06-01T02:39:33;24.00;63.00
20005;DHT22;69160;45.498;-73.582;2023-06-01T02:41:59;23.80;63.60
20005;DHT22;69160;45.498;-73.582;2023-06-01T02:44:26;23.80;65.10
20005;DHT22;69160;45.498;-73.582;2023-06-01T02:46:52;23.80;65.10
20005;DHT22;69160;45.498;-73.582;2023-06-01T02:49:18;23.90;64.90
20005;DHT22;69160;45.498;-73.582;2023-06-01T02:51:45;24.00;65.10
20005;DHT22;69160;45.498;-73.582;2023-06-01T02:54:11;24.10;64.90
20005;DHT22;69160;45.498;-73.582;2023-06-01T02:56:37;24.20;65.10
20005;DHT22;69160;45.498;-73.582;2023-06-01T02:59:03;24.20;64.50
20005;DHT22;69160;45.498;-73.582;2023-06-01T03:01:30;24.10;63.50
20005;DHT22;69160;45.498;-73.582;2023-06-01T03:04:01;23.90;62.80
20005;DHT22;69160;45.498;-73.582;2023-06-01T03:06:30;23.80;64.70
20005;DHT22;69160;45.498;-73.582;2023-06-01T03:09:06;23.80;65.10
20005;DHT22;69160;45.498;-73.582;2023-06-01T03:11:40;23.90;65.00
20005;DHT22;69160;45.498;-73.582;2023-06-01T03:14:07;24.00;64.90
20005;DHT22;69160;45.498;-73.582;2023-06-01T03:16:33;24.10;65.10
20005;DHT22;69160;45.498;-73.582;2023-06-01T03:19:03;24.20;65.10
20005;DHT22;69160;45.498;-73.582;2023-06-01T03:21:29;24.20;64.80
20005;DHT22;69160;45.498;-73.582;2023-06-01T03:23:57;24.10;64.00
20005;DHT22;69160;45.498;-73.582;2023-06-01T03:26:23;24.00;63.50
20005;DHT22;69160;45.498;-73.582;2023-06-01T03:28:50;23.80;62.80
20005;DHT22;69160;45.498;-73.582;2023-06-01T03:31:16;23.70;64.90
20005;DHT22;69160;45.498;-73.582;2023-06-01T03:33:42;23.70;65.10
20005;DHT22;69160;45.498;-73.582;2023-06-01T03:36:08;23.80;64.80
20005;DHT22;69160;45.498;-73.582;2023-06-01T03:38:34;23.80;64.60
20005;DHT22;69160;45.498;-73.582;2023-06-01T03:41:01;24.00;64.90
20005;DHT22;69160;45.498;-73.582;2023-06-01T03:43:27;24.00;64.60
20005;DHT22;69160;45.498;-73.582;2023-06-01T03:45:53;24.10;64.60
20005;DHT22;69160;45.498;-73.582;2023-06-01T03:48:19;24.10;64.40
20005;DHT22;69160;45.498;-73.582;2023-06-01T03:50:46;24.10;63.70
20005;DHT22;69160;45.498;-73.582;2023-06-01T03:53:12;23.90;62.70
20005;DHT22;69160;45.498;-73.582;2023-06-01T03:55:38;23.70;62.20
20005;DHT22;69160;45.498;-73.582;2023-06-01T03:58:04;23.50;62.40
20005;DHT22;69160;45.498;-73.582;2023-06-01T04:00:32;23.50;64.40
20005;DHT22;69160;45.498;-73.582;2023-06-01T04:02:59;23.50;64.40
20005;DHT22;69160;45.498;-73.582;2023-06-01T04:05:27;23.60;64.40
20005;DHT22;69160;45.498;-73.582;2023-06-01T04:07:54;23.70;64.20
20005;DHT22;69160;45.498;-73.582;2023-06-01T04:10:21;23.80;64.40
20005;DHT22;69160;45.498;-73.582;2023-06-01T04:12:49;23.80;64.40
20005;DHT22;69160;45.498;-73.582;2023-06-01T04:15:16;23.80;64.40
20005;DHT22;69160;45.498;-73.582;2023-06-01T04:17:43;23.90;64.40
20005;DHT22;69160;45.498;-73.582;2023-06-01T04:20:12;23.90;64.10
20005;DHT22;69160;45.498;-73.582;2023-06-01T04:22:39;23.80;62.70
20005;DHT22;69160;45.498;-73.582;2023-06-01T04:25:10;23.70;62.20
20005;DHT22;69160;45.498;-73.582;2023-06-01T04:27:47;23.50;61.90
20005;DHT22;69160;45.498;-73.582;2023-06-01T04:30:15;23.40;63.80
20005;DHT22;69160;45.498;-73.582;2023-06-01T04:32:42;23.40;64.00
20005;DHT22;69160;45.498;-73.582;2023-06-01T04:35:10;23.50;64.10
20005;DHT22;69160;45.498;-73.582;2023-06-01T04:37:40;23.60;64.10
20005;DHT22;69160;45.498;-73.582;2023-06-01T04:40:08;23.70;64.00
20005;DHT22;69160;45.498;-73.582;2023-06-01T04:42:36;23.80;64.20
20005;DHT22;69160;45.498;-73.582;2023-06-01T04:45:08;23.80;64.00
20005;DHT22;69160;45.498;-73.582;2023-06-01T04:47:35;23.80;64.10
20005;DHT22;69160;45.498;-73.582;2023-06-01T04:50:10;23.90;64.10
20005;DHT22;69160;45.498;-73.582;2023-06-01T04:52:37;23.90;64.00
20005;DHT22;69160;45.498;-73.582;2023-06-01T04:55:04;24.00;63.90
20005;DHT22;69160;45.498;-73.582;2023-06-01T04:57:32;23.90;62.70
20005;DHT22;69160;45.498;-73.582;2023-06-01T04:59:59;23.70;62.00
20005;DHT22;69160;45.498;-73.582;2023-06-01T05:02:26;23.50;61.70
20005;DHT22;69160;45.498;-73.582;2023-06-01T05:04:52;23.40;62.70
20005;DHT22;69160;45.498;-73.582;2023-06-01T05:07:18;23.40;64.10
20005;DHT22;69160;45.498;-73.582;2023-06-01T05:09:47;23.40;64.20
20005;DHT22;69160;45.498;-73.582;2023-06-01T05:12:14;23.60;64.10
20005;DHT22;69160;45.498;-73.582;2023-06-01T05:14:40;23.60;63.80
20005;DHT22;69160;45.498;-73.582;2023-06-01T05:17:06;23.70;63.70
20005;DHT22;69160;45.498;-73.582;2023-06-01T05:19:32;23.80;63.90
20005;DHT22;69160;45.498;-73.582;2023-06-01T05:21:58;23.80;63.90
20005;DHT22;69160;45.498;-73.582;2023-06-01T05:24:24;23.80;64.00
20005;DHT22;69160;45.498;-73.582;2023-06-01T05:26:50;23.80;63.70
20005;DHT22;69160;45.498;-73.582;2023-06-01T05:29:17;23.90;63.60
20005;DHT22;69160;45.498;-73.582;2023-06-01T05:31:43;23.80;62.60
20005;DHT22;69160;45.498;-73.582;2023-06-01T05:34:09;23.60;61.90
20005;DHT22;69160;45.498;-73.582;2023-06-01T05:36:35;23.40;61.60
20005;DHT22;69160;45.498;-73.582;2023-06-01T05:39:01;23.30;63.50
20005;DHT22;69160;45.498;-73.582;2023-06-01T05:41:27;23.40;64.20
20005;DHT22;69160;45.498;-73.582;2023-06-01T05:43:53;23.50;64.10
20005;DHT22;69160;45.498;-73.582;2023-06-01T05:46:20;23.60;63.90
20005;DHT22;69160;45.498;-73.582;2023-06-01T05:48:46;23.60;63.70
20005;DHT22;69160;45.498;-73.582;2023-06-01T05:51:12;23.70;63.90
20005;DHT22;69160;45.498;-73.582;2023-06-01T05:53:38;23.80;63.90
20005;DHT22;69160;45.498;-73.582;2023-06-01T05:56:04;23.80;63.70
20005;DHT22;69160;45.498;-73.582;2023-06-01T05:58:31;23.80;63.70
20005;DHT22;69160;45.498;-73.582;2023-06-01T06:00:57;23.90;63.60
20005;DHT22;69160;45.498;-73.582;2023-06-01T06:03:23;23.90;63.60
20005;DHT22;69160;45.498;-73.582;2023-06-01T06:05:49;23.90;63.60
20005;DHT22;69160;45.498;-73.582;2023-06-01T06:08:16;23.90;63.60
20005;DHT22;69160;45.498;-73.582;2023-06-01T06:10:42;23.80;62.60
20005;DHT22;69160;45.498;-73.582;2023-06-01T06:13:08;23.70;62.10
20005;DHT22;69160;45.498;-73.582;2023-06-01T06:15:34;23.50;61.90
20005;DHT22;69160;45.498;-73.582;2023-06-01T06:18:00;23.40;63.80
20005;DHT22;69160;45.498;-73.582;2023-06-01T06:20:26;23.50;64.40
20005;DHT22;69160;45.498;-73.582;2023-06-01T06:22:52;23.50;64.50
20005;DHT22;69160;45.498;-73.582;2023-06-01T06:25:19;23.60;64.20
20005;DHT22;69160;45.498;-73.582;2023-06-01T06:27:46;23.70;64.10
20005;DHT22;69160;45.498;-73.582;2023-06-01T06:30:13;23.70;64.10
20005;DHT22;69160;45.498;-73.582;2023-06-01T06:32:39;23.80;64.20
20005;DHT22;69160;45.498;-73.582;2023-06-01T06:35:05;23.80;64.00
20005;DHT22;69160;45.498;-73.582;2023-06-01T06:37:32;23.70;62.80
20005;DHT22;69160;45.498;-73.582;2023-06-01T06:39:58;23.60;62.20
20005;DHT22;69160;45.498;-73.582;2023-06-01T06:42:24;23.40;61.80
20005;DHT22;69160;45.498;-73.582;2023-06-01T06:44:51;23.40;64.10
20005;DHT22;69160;45.498;-73.582;2023-06-01T06:47:17;23.40;64.40
20005;DHT22;69160;45.498;-73.582;2023-06-01T06:49:45;23.50;64.70
20005;DHT22;69160;45.498;-73.582;2023-06-01T06:52:12;23.60;64.30
20005;DHT22;69160;45.498;-73.582;2023-06-01T06:54:41;23.60;64.00
20005;DHT22;69160;45.498;-73.582;2023-06-01T06:57:07;23.70;64.00
20005;DHT22;69160;45.498;-73.582;2023-06-01T06:59:34;23.80;64.00
20005;DHT22;69160;45.498;-73.582;2023-06-01T07:02:00;23.80;64.10
20005;DHT22;69160;45.498;-73.582;2023-06-01T07:04:28;23.80;64.20
20005;DHT22;69160;45.498;-73.582;2023-06-01T07:06:54;23.70;63.10
20005;DHT22;69160;45.498;-73.582;2023-06-01T07:09:20;23.60;62.50
20005;DHT22;69160;45.498;-73.582;2023-06-01T07:11:47;23.40;62.10
20005;DHT22;69160;45.498;-73.582;2023-06-01T07:14:14;23.40;64.30
20005;DHT22;69160;45.498;-73.582;2023-06-01T07:16:40;23.30;64.60
20005;DHT22;69160;45.498;-73.582;2023-06-01T07:19:07;23.40;64.90
20005;DHT22;69160;45.498;-73.582;2023-06-01T07:21:33;23.50;64.40
20005;DHT22;69160;45.498;-73.582;2023-06-01T07:24:02;23.60;64.30
20005;DHT22;69160;45.498;-73.582;2023-06-01T07:26:29;23.60;64.30
20005;DHT22;69160;45.498;-73.582;2023-06-01T07:28:55;23.70;64.50
20005;DHT22;69160;45.498;-73.582;2023-06-01T07:31:23;23.80;64.40
20005;DHT22;69160;45.498;-73.582;2023-06-01T07:33:49;23.80;64.50
20005;DHT22;69160;45.498;-73.582;2023-06-01T07:36:18;23.80;64.40
20005;DHT22;69160;45.498;-73.582;2023-06-01T07:38:46;23.80;63.70
20005;DHT22;69160;45.498;-73.582;2023-06-01T07:41:12;23.60;62.80
20005;DHT22;69160;45.498;-73.582;2023-06-01T07:43:38;23.40;62.30
20005;DHT22;69160;45.498;-73.582;2023-06-01T07:46:04;23.30;63.70
20005;DHT22;69160;45.498;-73.582;2023-06-01T07:48:31;23.30;64.80
20005;DHT22;69160;45.498;-73.582;2023-06-01T07:51:02;23.40;65.00
20005;DHT22;69160;45.498;-73.582;2023-06-01T07:53:28;23.50;64.50
20005;DHT22;69160;45.498;-73.582;2023-06-01T07:55:55;23.60;64.60
20005;DHT22;69160;45.498;-73.582;2023-06-01T07:58:21;23.60;64.50
20005;DHT22;69160;45.498;-73.582;2023-06-01T08:00:47;23.60;64.50
20005;DHT22;69160;45.498;-73.582;2023-06-01T08:03:14;23.70;64.50
20005;DHT22;69160;45.498;-73.582;2023-06-01T08:05:41;23.80;64.80
20005;DHT22;69160;45.498;-73.582;2023-06-01T08:08:10;23.80;64.70
20005;DHT22;69160;45.498;-73.582;2023-06-01T08:10:36;23.80;65.40
20005;DHT22;69160;45.498;-73.582;2023-06-01T08:13:05;23.70;63.30
20005;DHT22;69160;45.498;-73.582;2023-06-01T08:15:33;23.60;62.80
20005;DHT22;69160;45.498;-73.582;2023-06-01T08:18:02;23.40;63.80
20005;DHT22;69160;45.498;-73.582;2023-06-01T08:20:29;23.40;64.90
20005;DHT22;69160;45.498;-73.582;2023-06-01T08:22:55;23.40;65.20
20005;DHT22;69160;45.498;-73.582;2023-06-01T08:25:22;23.50;64.90
20005;DHT22;69160;45.498;-73.582;2023-06-01T08:27:49;23.60;64.80
20005;DHT22;69160;45.498;-73.582;2023-06-01T08:30:15;23.60;64.70
20005;DHT22;69160;45.498;-73.582;2023-06-01T08:32:41;23.60;64.90
20005;DHT22;69160;45.498;-73.582;2023-06-01T08:35:08;23.70;64.80
20005;DHT22;69160;45.498;-73.582;2023-06-01T08:37:35;23.70;64.90
20005;DHT22;69160;45.498;-73.582;2023-06-01T08:40:01;23.80;64.50
20005;DHT22;69160;45.498;-73.582;2023-06-01T08:42:39;23.60;63.20
20005;DHT22;69160;45.498;-73.582;2023-06-01T08:45:11;23.50;62.70
20005;DHT22;69160;45.498;-73.582;2023-06-01T08:47:40;23.40;64.80
20005;DHT22;69160;45.498;-73.582;2023-06-01T08:50:09;23.40;65.00
20005;DHT22;69160;45.498;-73.582;2023-06-01T08:52:36;23.40;65.60
20005;DHT22;69160;45.498;-73.582;2023-06-01T08:55:04;23.60;65.30
20005;DHT22;69160;45.498;-73.582;2023-06-01T08:57:31;23.60;65.20
20005;DHT22;69160;45.498;-73.582;2023-06-01T08:59:58;23.60;65.10
20005;DHT22;69160;45.498;-73.582;2023-06-01T09:02:27;23.70;65.30
20005;DHT22;69160;45.498;-73.582;2023-06-01T09:04:54;23.70;65.40
20005;DHT22;69160;45.498;-73.582;2023-06-01T09:07:20;23.70;65.20
20005;DHT22;69160;45.498;-73.582;2023-06-01T09:09:46;23.70;65.30
20005;DHT22;69160;45.498;-73.582;2023-06-01T09:12:21;23.80;65.40
20005;DHT22;69160;45.498;-73.582;2023-06-01T09:14:50;23.70;64.40
20005;DHT22;69160;45.498;-73.582;2023-06-01T09:17:23;23.60;63.30
20005;DHT22;69160;45.498;-73.582;2023-06-01T09:19:55;23.40;63.00
20005;DHT22;69160;45.498;-73.582;2023-06-01T09:22:22;23.30;64.90
20005;DHT22;69160;45.498;-73.582;2023-06-01T09:25:00;23.40;65.20
20005;DHT22;69160;45.498;-73.582;2023-06-01T09:27:26;23.40;65.60
20005;DHT22;69160;45.498;-73.582;2023-06-01T09:29:54;23.60;65.50
20005;DHT22;69160;45.498;-73.582;2023-06-01T09:32:21;23.60;65.10
20005;DHT22;69160;45.498;-73.582;2023-06-01T09:34:47;23.60;65.20
20005;DHT22;69160;45.498;-73.582;2023-06-01T09:37:13;23.70;65.40
20005;DHT22;69160;45.498;-73.582;2023-06-01T09:39:40;23.70;65.40
20005;DHT22;69160;45.498;-73.582;2023-06-01T09:42:07;23.70;65.40
20005;DHT22;69160;45.498;-73.582;2023-06-01T09:44:38;23.70;65.30
20005;DHT22;69160;45.498;-73.582;2023-06-01T09:47:09;23.80;65.40
20005;DHT22;69160;45.498;-73.582;2023-06-01T09:49:39;23.80;65.20
20005;DHT22;69160;45.498;-73.582;2023-06-01T09:54:49;23.50;63.00
20005;DHT22;69160;45.498;-73.582;2023-06-01T09:57:26;23.30;64.10
20005;DHT22;69160;45.498;-73.582;2023-06-01T09:59:55;23.40;65.30
20005;DHT22;69160;45.498;-73.582;2023-06-01T10:02:23;23.40;65.70
20005;DHT22;69160;45.498;-73.582;2023-06-01T10:04:51;23.50;65.70
20005;DHT22;69160;45.498;-73.582;2023-06-01T10:07:19;23.60;65.20
20005;DHT22;69160;45.498;-73.582;2023-06-01T10:09:53;23.60;65.10
20005;DHT22;69160;45.498;-73.582;2023-06-01T10:12:20;23.70;65.30
20005;DHT22;69160;45.498;-73.582;2023-06-01T10:14:46;23.70;65.30
20005;DHT22;69160;45.498;-73.582;2023-06-01T10:17:14;23.70;65.30
20005;DHT22;69160;45.498;-73.582;2023-06-01T10:19:43;23.80;65.40
20005;DHT22;69160;45.498;-73.582;2023-06-01T10:22:11;23.80;65.40
20005;DHT22;69160;45.498;-73.582;2023-06-01T10:24:38;23.80;65.20
20005;DHT22;69160;45.498;-73.582;2023-06-01T10:27:22;23.80;65.10
20005;DHT22;69160;45.498;-73.582;2023-06-01T10:29:52;23.80;63.60
20005;DHT22;69160;45.498;-73.582;2023-06-01T10:35:07;23.30;64.00
20005;DHT22;69160;45.498;-73.582;2023-06-01T10:37:34;23.30;65.00
20005;DHT22;69160;45.498;-73.582;2023-06-01T10:42:45;23.50;65.30
20005;DHT22;69160;45.498;-73.582;2023-06-01T10:48:00;23.70;65.10
20005;DHT22;69160;45.498;-73.582;2023-06-01T10:50:26;23.80;64.90
20005;DHT22;69160;45.498;-73.582;2023-06-01T10:52:54;23.80;64.20
20005;DHT22;69160;45.498;-73.582;2023-06-01T10:55:26;23.60;63.20
20005;DHT22;69160;45.498;-73.582;2023-06-01T10:58:21;23.40;62.50
20005;DHT22;69160;45.498;-73.582;2023-06-01T11:00:54;23.30;63.40
20005;DHT22;69160;45.498;-73.582;2023-06-01T11:03:44;23.30;64.90
20005;DHT22;69160;45.498;-73.582;2023-06-01T11:06:31;23.40;65.30
20005;DHT22;69160;45.498;-73.582;2023-06-01T11:09:03;23.50;65.20
20005;DHT22;69160;45.498;-73.582;2023-06-01T11:14:19;23.70;64.80
20005;DHT22;69160;45.498;-73.582;2023-06-01T11:16:46;23.80;64.80
20005;DHT22;69160;45.498;-73.582;2023-06-01T11:19:19;23.80;64.60
20005;DHT22;69160;45.498;-73.582;2023-06-01T11:21:47;23.90;64.50
20005;DHT22;69160;45.498;-73.582;2023-06-01T11:24:15;23.90;64.60
20005;DHT22;69160;45.498;-73.582;2023-06-01T11:31:49;24.00;64.50
20005;DHT22;69160;45.498;-73.582;2023-06-01T11:34:17;24.00;64.50
20005;DHT22;69160;45.498;-73.582;2023-06-01T11:36:48;24.00;64.20
20005;DHT22;69160;45.498;-73.582;2023-06-01T11:39:22;23.90;63.10
20005;DHT22;69160;45.498;-73.582;2023-06-01T11:42:06;23.60;63.00
20005;DHT22;69160;45.498;-73.582;2023-06-01T11:44:37;23.40;65.20
20005;DHT22;69160;45.498;-73.582;2023-06-01T11:47:05;23.50;65.50
20005;DHT22;69160;45.498;-73.582;2023-06-01T11:49:52;23.50;65.60
20005;DHT22;69160;45.498;-73.582;2023-06-01T11:52:19;23.60;65.20
20005;DHT22;69160;45.498;-73.582;2023-06-01T11:54:48;23.70;65.10
20005;DHT22;69160;45.498;-73.582;2023-06-01T11:57:17;23.80;65.00
20005;DHT22;69160;45.498;-73.582;2023-06-01T11:59:46;23.80;64.90
20005;DHT22;69160;45.498;-73.582;2023-06-01T12:02:23;23.80;64.50
20005;DHT22;69160;45.498;-73.582;2023-06-01T12:05:00;23.60;63.50
20005;DHT22;69160;45.498;-73.582;2023-06-01T12:07:32;23.40;63.00
20005;DHT22;69160;45.498;-73.582;2023-06-01T12:09:58;23.30;65.40
20005;DHT22;69160;45.498;-73.582;2023-06-01T12:12:26;23.40;65.80
20005;DHT22;69160;45.498;-73.582;2023-06-01T12:14:55;23.50;66.00
20005;DHT22;69160;45.498;-73.582;2023-06-01T12:17:21;23.60;65.40
20005;DHT22;69160;45.498;-73.582;2023-06-01T12:19:48;23.70;65.30
20005;DHT22;69160;45.498;-73.582;2023-06-01T12:22:17;23.70;65.10
20005;DHT22;69160;45.498;-73.582;2023-06-01T12:24:44;23.80;65.10
20005;DHT22;69160;45.498;-73.582;2023-06-01T12:27:17;23.80;65.50
20005;DHT22;69160;45.498;-73.582;2023-06-01T12:29:47;23.90;66.00
20005;DHT22;69160;45.498;-73.582;2023-06-01T12:32:16;24.00;67.10
20005;DHT22;69160;45.498;-73.582;2023-06-01T12:34:44;24.10;66.80
20005;DHT22;69160;45.498;-73.582;2023-06-01T12:37:17;24.10;67.20
20005;DHT22;69160;45.498;-73.582;2023-06-01T12:39:53;24.00;65.10
20005;DHT22;69160;45.498;-73.582;2023-06-01T12:42:41;23.80;64.40
20005;DHT22;69160;45.498;-73.582;2023-06-01T12:45:08;23.70;65.80
20005;DHT22;69160;45.498;-73.582;2023-06-01T12:47:39;23.80;65.80
20005;DHT22;69160;45.498;-73.582;2023-06-01T12:50:10;23.80;66.40
20005;DHT22;69160;45.498;-73.582;2023-06-01T12:52:37;24.00;66.60
20005;DHT22;69160;45.498;-73.582;2023-06-01T12:55:04;24.10;66.00
20005;DHT22;69160;45.498;-73.582;2023-06-01T12:57:31;24.10;66.40
20005;DHT22;69160;45.498;-73.582;2023-06-01T12:59:57;24.10;66.40
20005;DHT22;69160;45.498;-73.582;2023-06-01T13:02:25;24.20;67.60
20005;DHT22;69160;45.498;-73.582;2023-06-01T13:04:54;24.10;65.80
20005;DHT22;69160;45.498;-73.582;2023-06-01T13:07:23;24.00;65.00
20005;DHT22;69160;45.498;-73.582;2023-06-01T13:09:49;23.80;66.10
20005;DHT22;69160;45.498;-73.582;2023-06-01T13:12:16;23.70;67.50
20005;DHT22;69160;45.498;-73.582;2023-06-01T13:14:42;23.70;67.80
20005;DHT22;69160;45.498;-73.582;2023-06-01T13:17:08;23.80;67.10
20005;DHT22;69160;45.498;-73.582;2023-06-01T13:19:34;23.80;67.40
20005;DHT22;69160;45.498;-73.582;2023-06-01T13:22:00;23.90;67.80
20005;DHT22;69160;45.498;-73.582;2023-06-01T13:24:26;23.90;66.60
20005;DHT22;69160;45.498;-73.582;2023-06-01T13:26:53;24.10;66.80
20005;DHT22;69160;45.498;-73.582;2023-06-01T13:29:19;24.20;66.10
20005;DHT22;69160;45.498;-73.582;2023-06-01T13:31:45;24.30;66.80
20005;DHT22;69160;45.498;-73.582;2023-06-01T13:34:11;24.10;65.40
20005;DHT22;69160;45.498;-73.582;2023-06-01T13:36:38;23.90;64.70
20005;DHT22;69160;45.498;-73.582;2023-06-01T13:39:04;23.80;66.10
20005;DHT22;69160;45.498;-73.582;2023-06-01T13:41:30;23.70;66.20
20005;DHT22;69160;45.498;-73.582;2023-06-01T13:43:57;23.80;66.20
20005;DHT22;69160;45.498;-73.582;2023-06-01T13:46:23;24.00;66.20
20005;DHT22;69160;45.498;-73.582;2023-06-01T13:48:49;24.10;66.70
20005;DHT22;69160;45.498;-73.582;2023-06-01T13:51:15;24.20;66.30
20005;DHT22;69160;45.498;-73.582;2023-06-01T13:53:41;24.30;66.50
20005;DHT22;69160;45.498;-73.582;2023-06-01T13:56:07;24.40;66.70
20005;DHT22;69160;45.498;-73.582;2023-06-01T13:58:33;24.40;66.80
20005;DHT22;69160;45.498;-73.582;2023-06-01T14:01:00;24.30;65.50
20005;DHT22;69160;45.498;-73.582;2023-06-01T14:03:26;24.10;64.80
20005;DHT22;69160;45.498;-73.582;2023-06-01T14:05:52;24.00;66.20
20005;DHT22;69160;45.498;-73.582;2023-06-01T14:08:18;23.90;66.20
20005;DHT22;69160;45.498;-73.582;2023-06-01T14:10:45;24.00;66.30
20005;DHT22;69160;45.498;-73.582;2023-06-01T14:13:11;24.00;67.10
20005;DHT22;69160;45.498;-73.582;2023-06-01T14:15:37;24.10;67.70
20005;DHT22;69160;45.498;-73.582;2023-06-01T14:18:03;24.30;67.20
20005;DHT22;69160;45.498;-73.582;2023-06-01T14:20:31;24.30;67.60
20005;DHT22;69160;45.498;-73.582;2023-06-01T14:22:58;24.40;67.70
20005;DHT22;69160;45.498;-73.582;2023-06-01T14:25:26;24.40;67.80
20005;DHT22;69160;45.498;-73.582;2023-06-01T14:27:52;24.20;66.40
20005;DHT22;69160;45.498;-73.582;2023-06-01T14:30:18;24.00;65.60
20005;DHT22;69160;45.498;-73.582;2023-06-01T14:32:44;23.80;67.30
20005;DHT22;69160;45.498;-73.582;2023-06-01T14:35:11;23.80;67.30
20005;DHT22;69160;45.498;-73.582;2023-06-01T14:37:42;23.80;67.10
20005;DHT22;69160;45.498;-73.582;2023-06-01T14:40:09;23.90;67.10
20005;DHT22;69160;45.498;-73.582;2023-06-01T14:42:37;24.10;67.00
20005;DHT22;69160;45.498;-73.582;2023-06-01T14:45:04;24.10;66.90
20005;DHT22;69160;45.498;-73.582;2023-06-01T14:47:31;24.30;66.90
20005;DHT22;69160;45.498;-73.582;2023-06-01T14:49:57;24.40;66.80
20005;DHT22;69160;45.498;-73.582;2023-06-01T14:52:23;24.40;67.10
20005;DHT22;69160;45.498;-73.582;2023-06-01T14:54:49;24.20;66.20
20005;DHT22;69160;45.498;-73.582;2023-06-01T14:57:15;24.00;65.50
20005;DHT22;69160;45.498;-73.582;2023-06-01T14:59:42;23.90;67.00
20005;DHT22;69160;45.498;-73.582;2023-06-01T15:02:08;23.80;67.30
20005;DHT22;69160;45.498;-73.582;2023-06-01T15:04:34;23.90;67.00
20005;DHT22;69160;45.498;-73.582;2023-06-01T15:07:00;24.00;67.70
20005;DHT22;69160;45.498;-73.582;2023-06-01T15:09:27;24.10;67.80
20005;DHT22;69160;45.498;-73.582;2023-06-01T15:11:53;24.20;68.10
20005;DHT22;69160;45.498;-73.582;2023-06-01T15:14:19;24.40;67.80
20005;DHT22;69160;45.498;-73.582;2023-06-01T15:16:45;24.50;67.40
20005;DHT22;69160;45.498;-73.582;2023-06-01T15:19:11;24.40;67.70
20005;DHT22;69160;45.498;-73.582;2023-06-01T15:21:37;24.20;66.60
20005;DHT22;69160;45.498;-73.582;2023-06-01T15:24:04;24.10;65.90
20005;DHT22;69160;45.498;-73.582;2023-06-01T15:26:30;23.90;65.30
20005;DHT22;69160;45.498;-73.582;2023-06-01T15:28:57;23.80;66.30
20005;DHT22;69160;45.498;-73.582;2023-06-01T15:31:23;23.80;67.20
20005;DHT22;69160;45.498;-73.582;2023-06-01T15:33:49;23.80;67.00
20005;DHT22;69160;45.498;-73.582;2023-06-01T15:36:15;23.90;67.00
20005;DHT22;69160;45.498;-73.582;2023-06-01T15:38:41;24.10;67.50